Time;durP1;ratioP1;P1;durP2;ratioP2;P2;SDS_P1;SDS_P2;PMS_P1;PMS_P2;Temp;Humidity;BMP_temperature;BMP_pressure;BME280_temperature;BME280_humidity;BME280_pressure;Samples;Min_cycle;Max_cycle;Signal;HPM_P1;HPM_P2
2022/11/14 00:00:54;;;;;;;7.38;5.85;;;5.50;99.90;;;;;;5055368;28;20194;-67
2022/11/14 00:03:22;;;;;;;12.60;7.95;;;5.50;99.90;;;;;;5055819;28;20655;-67
2022/11/14 00:05:49;;;;;;;9.93;6.75;;;5.50;99.90;;;;;;5055233;28;20190;-66
2022/11/14 00:08:20;;;;;;;7.68;5.65;;;5.50;99.90;;;;;;5055697;28;20233;-66
2022/11/14 00:10:48;;;;;;;8.70;5.15;;;5.60;99.90;;;;;;5055081;28;20221;-66
2022/11/14 00:13:17;;;;;;;6.78;5.20;;;5.60;99.90;;;;;;5055490;28;20229;-66
2022/11/14 00:15:44;;;;;;;6.80;5.63;;;5.50;99.90;;;;;;5055048;28;20549;-66
2022/11/14 00:18:12;;;;;;;8.52;5.40;;;5.50;99.90;;;;;;5055302;28;20194;-67
2022/11/14 00:20:39;;;;;;;6.30;5.53;;;5.50;99.90;;;;;;5055102;28;20182;-67
2022/11/14 00:23:06;;;;;;;7.00;6.30;;;5.60;99.90;;;;;;5055499;28;20558;-66
2022/11/14 00:25:35;;;;;;;6.22;5.63;;;5.60;99.90;;;;;;5054829;28;20198;-66
2022/11/14 00:28:02;;;;;;;7.28;5.65;;;5.60;99.90;;;;;;5054404;28;20194;-66
2022/11/14 00:30:29;;;;;;;6.03;5.32;;;5.70;99.90;;;;;;5054923;28;20256;-66
2022/11/14 00:32:57;;;;;;;8.07;5.38;;;5.70;99.90;;;;;;5055299;28;20194;-66
2022/11/14 00:35:24;;;;;;;8.90;7.28;;;5.70;99.90;;;;;;5054388;28;20191;-67
2022/11/14 00:37:51;;;;;;;8.55;5.68;;;5.80;99.90;;;;;;5035468;28;20187;-67
2022/11/14 00:40:18;;;;;;;8.77;6.18;;;5.70;99.90;;;;;;5035218;28;20660;-66
2022/11/14 00:42:49;;;;;;;7.88;5.65;;;5.70;99.90;;;;;;5054118;28;20277;-66
2022/11/14 00:45:16;;;;;;;7.72;6.00;;;5.70;99.90;;;;;;5054934;28;20190;-67
2022/11/14 00:47:43;;;;;;;7.20;6.15;;;5.70;99.90;;;;;;5054421;28;20541;-66
2022/11/14 00:50:11;;;;;;;6.30;5.43;;;5.70;99.90;;;;;;5054965;28;20543;-66
2022/11/14 00:52:38;;;;;;;9.45;6.15;;;5.70;99.90;;;;;;5054536;28;20740;-66
2022/11/14 00:55:09;;;;;;;6.57;5.72;;;5.70;99.90;;;;;;5054481;28;20195;-66
2022/11/14 00:57:36;;;;;;;14.55;6.25;;;5.70;99.90;;;;;;5054742;28;20198;-67
2022/11/14 01:00:09;;;;;;;6.68;5.30;;;5.70;99.90;;;;;;5054268;28;20190;-66
2022/11/14 01:02:37;;;;;;;9.35;5.25;;;5.70;99.90;;;;;;5054643;28;20216;-66
2022/11/14 01:05:04;;;;;;;6.70;5.65;;;5.70;99.90;;;;;;5053229;28;20194;-66
2022/11/14 01:07:32;;;;;;;9.02;6.15;;;5.80;99.90;;;;;;5054545;28;20602;-66
2022/11/14 01:09:59;;;;;;;7.93;6.10;;;5.80;99.90;;;;;;5054627;28;20593;-67
2022/11/14 01:12:26;;;;;;;9.18;5.57;;;5.80;99.80;;;;;;5054089;28;20190;-68
2022/11/14 01:14:53;;;;;;;7.75;5.95;;;5.70;99.70;;;;;;5053881;28;20209;-66
2022/11/14 01:17:24;;;;;;;7.18;5.55;;;5.70;99.90;;;;;;5054470;28;20205;-66
2022/11/14 01:19:51;;;;;;;6.57;5.20;;;5.70;99.90;;;;;;5053695;28;20679;-66
2022/11/14 01:22:18;;;;;;;7.43;4.57;;;5.70;99.90;;;;;;5054223;28;20264;-66
2022/11/14 01:24:49;;;;;;;6.65;4.25;;;5.80;99.90;;;;;;5053841;28;20187;-66
2022/11/14 01:27:17;;;;;;;8.77;5.63;;;5.80;99.90;;;;;;5054444;28;20190;-66
2022/11/14 01:29:44;;;;;;;7.88;5.72;;;5.80;99.80;;;;;;5053323;28;20187;-66
2022/11/14 01:32:11;;;;;;;8.02;5.68;;;5.80;99.80;;;;;;5053828;28;20578;-67
2022/11/14 01:34:40;;;;;;;5.57;4.38;;;5.80;99.90;;;;;;5053731;28;20187;-66
2022/11/14 01:37:08;;;;;;;6.40;5.13;;;5.80;99.90;;;;;;5054300;28;20190;-66
2022/11/14 01:39:36;;;;;;;14.80;5.93;;;5.90;99.90;;;;;;5053590;28;20186;-66
2022/11/14 01:42:03;;;;;;;10.73;5.43;;;5.90;99.90;;;;;;5053722;28;20201;-66
2022/11/14 01:44:45;;;;;;;5.03;4.43;;;5.90;99.80;;;;;;5053285;28;20282;-67
2022/11/14 01:47:13;;;;;;;6.22;4.80;;;5.90;99.70;;;;;;5053653;28;20273;-66
2022/11/14 01:49:46;;;;;;;5.60;4.47;;;5.90;99.40;;;;;;5053341;28;20183;-66
2022/11/14 01:52:17;;;;;;;5.43;4.10;;;6.00;99.30;;;;;;5053665;28;20587;-67
2022/11/14 01:54:50;;;;;;;5.75;4.38;;;6.00;99.20;;;;;;5053268;28;20486;-66
2022/11/14 01:57:20;;;;;;;6.70;5.10;;;6.00;98.90;;;;;;5053808;28;20612;-68
2022/11/14 01:59:54;;;;;;;6.82;4.85;;;6.00;99.00;;;;;;5053399;28;20182;-66
2022/11/14 02:02:24;;;;;;;5.38;4.40;;;6.00;98.90;;;;;;5053556;28;20647;-67
2022/11/14 02:04:57;;;;;;;5.07;4.32;;;5.90;98.70;;;;;;5052959;28;20609;-68
2022/11/14 02:07:27;;;;;;;8.18;4.88;;;5.90;98.50;;;;;;5053598;28;20197;-67
2022/11/14 02:09:55;;;;;;;8.93;5.68;;;5.90;98.40;;;;;;5052896;28;20281;-67
2022/11/14 02:12:24;;;;;;;10.48;4.85;;;5.80;98.20;;;;;;5053175;28;20550;-68
2022/11/14 02:15:00;;;;;;;5.25;4.30;;;5.80;98.30;;;;;;5053226;28;20620;-67
2022/11/14 02:17:28;;;;;;;5.05;4.15;;;5.80;98.40;;;;;;5052636;28;20229;-67
2022/11/14 02:20:07;;;;;;;9.07;4.53;;;5.70;98.50;;;;;;5053251;28;20191;-68
2022/11/14 02:22:34;;;;;;;6.75;5.03;;;5.80;98.50;;;;;;5052703;28;20190;-66
2022/11/14 02:25:01;;;;;;;9.65;5.10;;;5.80;98.50;;;;;;5052881;28;20212;-66
2022/11/14 02:27:30;;;;;;;5.93;4.65;;;5.80;98.40;;;;;;5052528;28;20578;-67
2022/11/14 02:30:06;;;;;;;7.78;4.00;;;5.80;98.40;;;;;;5052504;28;20239;-68
2022/11/14 02:32:33;;;;;;;8.05;4.70;;;5.80;98.40;;;;;;5052854;28;20236;-66
2022/11/14 02:35:07;;;;;;;9.18;5.53;;;5.80;98.20;;;;;;5052108;28;20198;-66
2022/11/14 02:37:34;;;;;;;8.68;5.03;;;5.80;98.20;;;;;;5051992;28;20678;-67
2022/11/14 02:40:02;;;;;;;12.30;5.75;;;5.70;98.20;;;;;;5052542;28;20190;-66
2022/11/14 02:42:29;;;;;;;10.30;5.25;;;5.70;97.80;;;;;;5052381;28;20201;-67
2022/11/14 02:44:56;;;;;;;31.20;6.28;;;5.60;97.80;;;;;;5052612;28;20247;-66
2022/11/14 02:47:23;;;;;;;6.90;5.18;;;5.50;97.70;;;;;;5052250;28;20754;-67
2022/11/14 02:49:52;;;;;;;9.63;4.68;;;5.40;97.80;;;;;;5052727;28;20609;-67
2022/11/14 02:52:20;;;;;;;10.75;5.50;;;5.10;97.80;;;;;;5052788;28;20309;-66
2022/11/14 02:54:47;;;;;;;6.00;4.45;;;4.90;98.80;;;;;;5052369;28;20182;-66
2022/11/14 02:57:14;;;;;;;14.43;4.88;;;4.80;99.00;;;;;;5052640;28;20191;-66
2022/11/14 02:59:42;;;;;;;5.95;4.35;;;4.70;99.20;;;;;;5051818;28;20193;-66
2022/11/14 03:02:09;;;;;;;6.65;4.13;;;4.50;99.60;;;;;;5052467;28;20281;-66
2022/11/14 03:04:36;;;;;;;7.00;4.63;;;4.50;99.90;;;;;;5052107;28;20710;-67
2022/11/14 03:07:03;;;;;;;8.38;4.70;;;4.50;99.90;;;;;;5052696;28;20596;-67
2022/11/14 03:09:32;;;;;;;8.20;5.07;;;4.50;99.90;;;;;;5051978;28;20190;-67
2022/11/14 03:11:59;;;;;;;6.90;5.82;;;4.50;99.90;;;;;;5052180;28;20222;-66
2022/11/14 03:14:26;;;;;;;6.20;4.25;;;4.50;99.90;;;;;;5051857;28;20182;-67
2022/11/14 03:16:57;;;;;;;6.22;4.60;;;4.60;99.90;;;;;;5052476;28;20356;-67
2022/11/14 03:19:24;;;;;;;5.25;4.10;;;4.60;99.90;;;;;;5051755;28;20675;-66
2022/11/14 03:21:52;;;;;;;4.30;3.80;;;4.60;99.90;;;;;;5052218;28;20195;-67
2022/11/14 03:24:19;;;;;;;6.50;4.80;;;4.60;99.60;;;;;;5052158;28;20187;-66
2022/11/14 03:26:49;;;;;;;6.25;4.13;;;4.70;99.80;;;;;;5052223;28;20209;-66
2022/11/14 03:29:16;;;;;;;5.63;4.18;;;4.70;99.90;;;;;;5050873;28;20281;-67
2022/11/14 03:31:44;;;;;;;6.97;4.13;;;4.80;99.90;;;;;;5052179;28;20226;-66
2022/11/14 03:34:11;;;;;;;4.10;3.55;;;4.80;99.80;;;;;;5051156;28;20194;-66
2022/11/14 03:36:40;;;;;;;5.18;3.90;;;4.80;99.90;;;;;;5051796;28;20537;-66
2022/11/14 03:39:08;;;;;;;5.00;4.10;;;4.90;99.50;;;;;;5052158;28;20588;-66
2022/11/14 03:41:35;;;;;;;4.80;4.00;;;4.90;99.50;;;;;;5051464;28;20205;-67
2022/11/14 03:44:07;;;;;;;5.05;4.20;;;4.90;99.20;;;;;;5052016;28;20197;-67
2022/11/14 03:46:34;;;;;;;6.03;4.47;;;4.90;99.10;;;;;;5051763;28;20653;-66
2022/11/14 03:49:01;;;;;;;5.18;3.92;;;4.90;98.70;;;;;;5052245;28;20217;-66
2022/11/14 03:51:28;;;;;;;4.40;3.75;;;4.80;98.60;;;;;;5051398;28;20245;-67
2022/11/14 03:53:58;;;;;;;4.57;4.00;;;4.80;98.80;;;;;;5051863;28;20190;-66
2022/11/14 03:56:26;;;;;;;4.55;3.80;;;4.80;98.90;;;;;;5051483;28;20191;-67
2022/11/14 03:58:53;;;;;;;4.63;3.70;;;4.70;98.90;;;;;;5051783;28;20668;-67
2022/11/14 04:01:22;;;;;;;4.82;4.05;;;4.70;99.10;;;;;;5051681;28;20189;-66
2022/11/14 04:03:49;;;;;;;4.32;3.92;;;4.70;99.30;;;;;;5051876;28;20230;-66
2022/11/14 04:06:16;;;;;;;4.95;4.45;;;4.80;99.30;;;;;;5051762;28;20190;-66
2022/11/14 04:08:44;;;;;;;4.13;3.50;;;4.80;99.30;;;;;;5052177;28;20224;-67
2022/11/14 04:11:11;;;;;;;4.45;3.88;;;4.90;99.20;;;;;;5051438;28;20641;-66
2022/11/14 04:13:38;;;;;;;5.35;4.22;;;4.90;99.00;;;;;;5051883;28;20194;-66
2022/11/14 04:16:07;;;;;;;5.65;5.15;;;4.90;99.20;;;;;;5051387;28;20218;-67
2022/11/14 04:18:36;;;;;;;4.63;4.20;;;4.90;98.60;;;;;;5051974;28;20205;-66
2022/11/14 04:21:03;;;;;;;5.10;3.70;;;4.90;98.40;;;;;;5051760;28;20198;-66
2022/11/14 04:23:31;;;;;;;5.10;4.60;;;4.80;98.20;;;;;;5051469;28;20187;-66
2022/11/14 04:25:58;;;;;;;4.80;3.97;;;4.70;98.30;;;;;;5052008;28;20195;-66
2022/11/14 04:28:25;;;;;;;4.50;3.90;;;4.70;98.40;;;;;;5051428;28;20518;-67
2022/11/14 04:30:52;;;;;;;5.13;4.05;;;4.80;98.30;;;;;;5051248;28;20197;-66
2022/11/14 04:33:19;;;;;;;4.60;3.83;;;4.70;98.10;;;;;;5051663;28;20222;-66
2022/11/14 04:35:49;;;;;;;4.35;3.50;;;4.70;98.00;;;;;;5051374;28;20195;-66
2022/11/14 04:38:16;;;;;;;4.75;3.47;;;4.60;98.00;;;;;;5051941;28;20203;-67
2022/11/14 04:40:49;;;;;;;4.40;3.22;;;4.70;98.10;;;;;;5051998;28;20183;-66
2022/11/14 04:43:16;;;;;;;5.90;4.07;;;4.60;98.00;;;;;;5055426;28;20194;-66
2022/11/14 04:45:44;;;;;;;3.80;3.40;;;4.60;98.00;;;;;;5054689;28;20284;-66
2022/11/14 04:48:11;;;;;;;5.50;3.78;;;4.60;98.00;;;;;;5055046;28;20195;-66
2022/11/14 04:50:38;;;;;;;4.82;4.10;;;4.50;98.30;;;;;;5054344;28;20183;-66
2022/11/14 04:53:07;;;;;;;7.80;5.30;;;4.50;98.00;;;;;;5055098;28;20213;-67
2022/11/14 04:55:34;;;;;;;5.20;4.13;;;4.40;98.20;;;;;;5054655;28;20278;-66
2022/11/14 04:58:02;;;;;;;4.68;4.05;;;4.50;98.20;;;;;;5055046;28;20194;-66
2022/11/14 05:00:29;;;;;;;4.25;3.72;;;4.30;98.20;;;;;;5054507;28;20191;-67
2022/11/14 05:02:59;;;;;;;5.05;3.60;;;4.30;98.60;;;;;;5054561;28;20194;-66
2022/11/14 05:05:26;;;;;;;5.00;3.75;;;4.30;99.00;;;;;;5054560;28;20205;-67
2022/11/14 05:07:55;;;;;;;5.38;4.25;;;4.30;98.80;;;;;;5054969;28;20194;-66
2022/11/14 05:10:24;;;;;;;5.28;3.80;;;4.40;99.20;;;;;;5054497;28;20498;-67
2022/11/14 05:12:54;;;;;;;5.10;3.83;;;4.40;98.90;;;;;;5055027;28;20214;-66
2022/11/14 05:15:21;;;;;;;4.93;3.58;;;4.50;98.80;;;;;;5054406;28;20194;-66
2022/11/14 05:17:48;;;;;;;5.13;3.75;;;4.60;98.70;;;;;;5054724;28;20205;-67
2022/11/14 05:20:16;;;;;;;7.25;4.80;;;4.60;98.60;;;;;;5054276;28;20710;-66
2022/11/14 05:22:43;;;;;;;6.55;3.97;;;4.60;98.60;;;;;;5054143;28;20191;-67
2022/11/14 05:25:11;;;;;;;4.47;3.58;;;4.70;98.40;;;;;;5054545;28;20201;-67
2022/11/14 05:27:40;;;;;;;7.82;4.65;;;4.70;98.50;;;;;;5053893;28;20187;-67
2022/11/14 05:30:08;;;;;;;4.45;3.70;;;4.80;98.40;;;;;;5054403;28;20193;-67
2022/11/14 05:32:36;;;;;;;6.65;5.30;;;4.80;98.40;;;;;;5053962;28;20261;-68
2022/11/14 05:35:03;;;;;;;7.90;7.07;;;4.80;98.40;;;;;;5054181;28;20284;-68
2022/11/14 05:37:30;;;;;;;6.43;5.75;;;4.90;98.40;;;;;;5054142;28;20190;-67
2022/11/14 05:39:57;;;;;;;6.13;4.95;;;4.90;97.90;;;;;;5053083;28;20183;-67
2022/11/14 05:42:27;;;;;;;5.25;4.50;;;4.90;98.00;;;;;;5053564;28;20665;-67
2022/11/14 05:44:56;;;;;;;5.15;4.32;;;4.90;98.00;;;;;;5053580;28;20190;-67
2022/11/14 05:47:23;;;;;;;6.40;4.47;;;4.90;97.90;;;;;;5054090;28;20194;-67
2022/11/14 05:49:50;;;;;;;6.03;3.85;;;4.90;97.70;;;;;;5053498;28;20195;-68
2022/11/14 05:52:17;;;;;;;5.22;4.20;;;4.90;97.40;;;;;;5049518;28;20217;-67
2022/11/14 05:54:46;;;;;;;4.95;4.05;;;4.80;97.20;;;;;;5052248;28;20191;-68
2022/11/14 05:57:13;;;;;;;5.28;4.72;;;4.70;97.10;;;;;;5050223;28;20194;-68
2022/11/14 05:59:41;;;;;;;6.25;5.05;;;4.70;97.10;;;;;;5033574;28;20202;-67
2022/11/14 06:02:09;;;;;;;6.53;5.20;;;4.60;97.00;;;;;;5047161;28;20194;-67
2022/11/14 06:04:37;;;;;;;5.82;5.22;;;4.60;97.00;;;;;;5053371;28;20264;-67
2022/11/14 06:07:04;;;;;;;5.20;4.50;;;4.50;96.90;;;;;;5051998;28;20198;-68
2022/11/14 06:09:31;;;;;;;5.70;4.97;;;4.50;96.90;;;;;;5052785;28;20244;-68
2022/11/14 06:11:58;;;;;;;5.80;5.03;;;4.40;96.80;;;;;;5052879;28;20214;-68
2022/11/14 06:14:25;;;;;;;8.43;5.30;;;4.40;96.90;;;;;;5053440;28;20300;-68
2022/11/14 06:16:53;;;;;;;5.32;4.80;;;4.30;96.70;;;;;;5053324;28;20186;-67
2022/11/14 06:19:21;;;;;;;5.60;4.63;;;4.20;96.50;;;;;;5053445;28;20214;-67
2022/11/14 06:21:48;;;;;;;7.82;5.38;;;4.10;97.00;;;;;;5049957;28;20194;-67
2022/11/14 06:24:16;;;;;;;13.50;6.28;;;4.20;97.30;;;;;;5051198;28;20190;-67
2022/11/14 06:26:43;;;;;;;15.80;9.63;;;4.20;97.50;;;;;;5051215;28;20195;-67
2022/11/14 06:29:13;;;;;;;13.73;8.98;;;4.20;97.70;;;;;;5051034;28;20240;-67
2022/11/14 06:31:40;;;;;;;11.82;9.32;;;4.30;97.90;;;;;;5051061;28;20190;-67
2022/11/14 06:34:07;;;;;;;10.38;7.78;;;4.30;97.90;;;;;;5051392;28;20198;-67
2022/11/14 06:36:36;;;;;;;10.88;7.68;;;4.30;97.80;;;;;;5050765;28;20289;-68
2022/11/14 06:39:03;;;;;;;9.93;6.80;;;4.40;97.80;;;;;;5047727;28;20196;-67
2022/11/14 06:41:31;;;;;;;8.75;6.50;;;4.40;97.70;;;;;;5047047;28;20198;-67
2022/11/14 06:43:58;;;;;;;10.18;5.90;;;4.40;97.90;;;;;;5049468;28;20186;-68
2022/11/14 06:46:25;;;;;;;8.73;6.45;;;4.40;98.00;;;;;;5049647;28;20186;-68
2022/11/14 06:48:52;;;;;;;12.95;8.85;;;4.60;98.30;;;;;;5049812;28;20264;-68
2022/11/14 06:51:19;;;;;;;10.80;8.00;;;4.80;98.30;;;;;;5049998;28;20549;-68
2022/11/14 06:53:48;;;;;;;6.43;5.82;;;5.10;98.90;;;;;;5050753;28;20225;-67
2022/11/14 06:56:19;;;;;;;7.60;5.90;;;5.30;98.20;;;;;;5050187;28;20191;-67
2022/11/14 06:58:48;;;;;;;5.70;5.07;;;5.60;98.40;;;;;;5050488;28;20566;-67
2022/11/14 07:01:17;;;;;;;7.18;5.20;;;5.90;98.40;;;;;;5050365;28;20273;-68
2022/11/14 07:03:45;;;;;;;7.22;5.93;;;6.30;96.50;;;;;;5048939;28;20234;-67
2022/11/14 07:06:14;;;;;;;6.00;4.78;;;6.60;96.30;;;;;;5049113;28;20716;-67
2022/11/14 07:08:41;;;;;;;5.43;3.85;;;7.00;95.80;;;;;;5050335;28;20194;-67
2022/11/14 07:11:21;;;;;;;4.00;3.47;;;7.40;95.60;;;;;;5051385;28;20667;-67
2022/11/14 07:13:48;;;;;;;4.90;3.80;;;7.80;94.30;;;;;;5048384;28;20585;-67
2022/11/14 07:16:15;;;;;;;3.90;3.22;;;8.20;91.60;;;;;;5051964;28;20596;-67
2022/11/14 07:18:42;;;;;;;4.25;3.35;;;8.50;91.30;;;;;;5041870;28;20242;-68
2022/11/14 07:21:12;;;;;;;4.00;3.20;;;8.80;90.10;;;;;;5051381;28;20256;-66
2022/11/14 07:23:39;;;;;;;5.40;4.53;;;8.90;88.40;;;;;;5051779;28;20193;-67
2022/11/14 07:26:08;;;;;;;5.65;4.53;;;9.20;87.30;;;;;;5051877;28;20194;-67
2022/11/14 07:28:40;;;;;;;5.72;4.40;;;9.20;83.00;;;;;;5051940;28;20194;-68
2022/11/14 07:31:08;;;;;;;5.60;4.28;;;9.20;81.80;;;;;;5052105;28;20213;-67
2022/11/14 07:33:36;;;;;;;4.38;3.88;;;9.30;82.80;;;;;;5051630;28;20275;-67
2022/11/14 07:36:03;;;;;;;5.53;3.80;;;9.60;82.80;;;;;;5052637;28;20703;-67
2022/11/14 07:38:31;;;;;;;5.13;4.07;;;9.80;83.50;;;;;;5050830;28;20194;-67
2022/11/14 07:41:00;;;;;;;3.90;3.08;;;10.20;79.30;;;;;;5052424;28;20629;-67
2022/11/14 07:43:28;;;;;;;5.68;3.55;;;10.30;78.10;;;;;;5050872;28;20641;-67
2022/11/14 07:45:59;;;;;;;6.60;4.10;;;10.50;78.60;;;;;;5051492;28;20248;-67
2022/11/14 07:48:26;;;;;;;4.68;3.65;;;10.90;78.20;;;;;;5051943;28;20190;-67
2022/11/14 07:50:53;;;;;;;5.85;3.83;;;11.40;76.60;;;;;;5051772;28;20230;-67
2022/11/14 07:53:20;;;;;;;4.50;3.95;;;11.70;74.30;;;;;;5052499;28;20599;-67
2022/11/14 07:55:47;;;;;;;3.47;2.97;;;12.00;73.60;;;;;;5052330;28;20589;-67
2022/11/14 07:58:14;;;;;;;7.63;4.53;;;12.40;73.80;;;;;;5051775;28;20192;-67
2022/11/14 08:00:41;;;;;;;7.30;4.53;;;12.80;73.20;;;;;;5052302;28;20305;-67
2022/11/14 08:03:10;;;;;;;4.68;3.40;;;13.10;71.50;;;;;;5052069;28;20318;-67
2022/11/14 08:05:37;;;;;;;5.20;4.30;;;13.40;68.40;;;;;;5051501;28;20287;-67
2022/11/14 08:08:04;;;;;;;5.93;4.77;;;13.70;66.50;;;;;;5052065;28;20443;-68
2022/11/14 08:10:33;;;;;;;5.63;3.63;;;14.10;67.00;;;;;;5052372;28;20435;-67
2022/11/14 08:13:01;;;;;;;10.10;5.30;;;14.30;65.80;;;;;;5050668;28;20476;-67
2022/11/14 08:15:29;;;;;;;4.77;4.23;;;14.60;64.50;;;;;;5054375;28;20794;-67
2022/11/14 08:17:58;;;;;;;5.27;4.77;;;14.90;64.60;;;;;;5054419;28;20460;-67
2022/11/14 08:20:30;;;;;;;6.30;4.73;;;15.30;63.00;;;;;;5056119;28;20445;-68
2022/11/14 08:23:02;;;;;;;3.80;3.07;;;15.70;60.50;;;;;;5055996;28;20777;-67
2022/11/14 08:25:29;;;;;;;4.57;4.10;;;16.10;58.10;;;;;;5056089;28;20961;-67
2022/11/14 08:27:56;;;;;;;4.00;3.60;;;16.30;56.10;;;;;;5056005;28;20444;-67
2022/11/14 08:30:23;;;;;;;4.30;3.90;;;16.40;56.50;;;;;;5055337;28;20502;-68
2022/11/14 08:32:50;;;;;;;3.87;3.10;;;16.70;56.50;;;;;;5055361;28;20512;-68
2022/11/14 08:35:18;;;;;;;4.23;3.73;;;17.10;55.40;;;;;;5055185;28;20468;-67
2022/11/14 08:37:46;;;;;;;4.23;3.80;;;17.40;54.60;;;;;;5055662;28;20485;-67
2022/11/14 08:40:13;;;;;;;4.73;3.30;;;17.70;53.00;;;;;;5055899;28;20477;-67
2022/11/14 08:42:40;;;;;;;7.63;3.83;;;18.00;51.80;;;;;;5055130;28;20448;-67
2022/11/14 08:45:09;;;;;;;4.33;3.93;;;18.30;50.50;;;;;;5055240;28;20445;-67
2022/11/14 08:47:36;;;;;;;4.80;3.73;;;18.60;50.10;;;;;;5055629;28;20495;-68
2022/11/14 08:50:04;;;;;;;5.60;4.73;;;19.00;49.40;;;;;;5055950;28;20498;-68
2022/11/14 08:52:31;;;;;;;4.50;3.20;;;19.10;48.30;;;;;;5055468;28;20483;-67
2022/11/14 08:54:59;;;;;;;4.93;3.00;;;19.40;49.50;;;;;;5055966;28;20824;-68
2022/11/14 08:57:27;;;;;;;7.23;3.70;;;19.80;48.80;;;;;;5055478;28;20494;-68
2022/11/14 08:59:54;;;;;;;6.63;3.17;;;20.20;47.80;;;;;;5055493;28;20441;-67
2022/11/14 09:02:21;;;;;;;5.33;3.53;;;20.70;46.60;;;;;;5055279;28;20935;-67
2022/11/14 09:04:48;;;;;;;4.20;3.43;;;21.20;44.50;;;;;;5055407;28;20468;-67
2022/11/14 09:07:15;;;;;;;4.47;3.17;;;21.30;41.50;;;;;;5055363;28;20469;-67
2022/11/14 09:09:42;;;;;;;4.77;4.13;;;21.40;42.70;;;;;;5055415;28;20437;-66
2022/11/14 09:12:11;;;;;;;4.57;3.40;;;21.40;41.70;;;;;;5055268;28;20444;-66
2022/11/14 09:14:37;;;;;;;5.53;3.20;;;21.70;42.00;;;;;;5055097;28;20484;-67
2022/11/14 09:17:04;;;;;;;4.50;3.30;;;22.10;40.70;;;;;;5055350;28;20542;-66
2022/11/14 09:19:31;;;;;;;4.30;3.30;;;22.00;39.50;;;;;;5055331;28;20444;-66
2022/11/14 09:21:58;;;;;;;3.80;3.00;;;22.00;40.30;;;;;;5054934;28;20445;-66
2022/11/14 09:24:25;;;;;;;6.40;4.10;;;22.10;39.80;;;;;;5054896;28;20943;-66
2022/11/14 09:26:52;;;;;;;3.63;3.20;;;22.00;40.00;;;;;;5054035;28;20491;-67
2022/11/14 09:29:21;;;;;;;4.33;3.07;;;22.30;39.10;;;;;;5054973;28;20795;-68
2022/11/14 09:31:48;;;;;;;4.50;3.10;;;22.80;39.10;;;;;;5054746;28;20441;-67
2022/11/14 09:34:15;;;;;;;6.20;3.23;;;23.40;39.50;;;;;;5054474;28;20538;-67
2022/11/14 09:36:42;;;;;;;3.80;3.30;;;23.90;39.00;;;;;;5054814;28;20473;-66
2022/11/14 09:39:09;;;;;;;6.10;5.10;;;24.30;36.80;;;;;;5054786;28;20946;-66
2022/11/14 09:41:51;;;;;;;4.20;3.00;;;24.70;37.70;;;;;;5054826;28;20912;-66
2022/11/14 09:44:39;;;;;;;4.00;2.37;;;25.20;36.50;;;;;;5054795;28;20923;-66
2022/11/14 09:47:11;;;;;;;3.63;2.40;;;25.60;35.10;;;;;;5054566;28;20436;-67
2022/11/14 09:49:40;;;;;;;3.13;2.33;;;25.70;33.30;;;;;;5054613;28;20441;-66
2022/11/14 09:52:16;;;;;;;3.67;2.63;;;25.80;33.90;;;;;;5054243;28;20479;-67
2022/11/14 09:54:49;;;;;;;3.40;2.37;;;26.10;33.90;;;;;;5054539;28;20476;-67
2022/11/14 09:57:19;;;;;;;4.63;2.70;;;26.50;34.00;;;;;;5054645;28;20931;-67
2022/11/14 09:59:47;;;;;;;19.50;17.60;;;26.80;33.00;;;;;;5054130;28;20492;-67
2022/11/14 10:02:40;;;;;;;7.50;3.47;;;26.80;31.60;;;;;;5054353;28;20468;-67
2022/11/14 10:05:24;;;;;;;5.30;2.80;;;26.70;30.90;;;;;;5054472;28;20774;-67
2022/11/14 10:08:09;;;;;;;3.80;2.57;;;26.90;31.30;;;;;;5053971;28;20472;-66
2022/11/14 10:14:16;;;;;;;4.97;2.97;;;27.50;30.20;;;;;;5053957;28;20834;-67
2022/11/14 10:16:56;;;;;;;3.57;2.63;;;27.90;29.00;;;;;;5054165;28;20923;-67
2022/11/14 10:19:30;;;;;;;3.80;2.97;;;28.30;28.50;;;;;;5054042;28;20432;-67
2022/11/14 10:22:13;;;;;;;4.30;3.07;;;28.80;27.90;;;;;;5054314;28;20440;-67
2022/11/14 10:24:51;;;;;;;4.23;3.10;;;29.30;28.20;;;;;;5053958;28;20440;-66
2022/11/14 10:27:20;;;;;;;3.90;2.83;;;29.90;27.20;;;;;;5054177;28;20437;-66
2022/11/14 10:30:10;;;;;;;3.80;2.70;;;30.50;27.20;;;;;;5053532;28;20445;-66
2022/11/14 10:33:20;;;;;;;3.83;3.00;;;31.00;26.00;;;;;;5053359;28;20429;-66
2022/11/14 10:35:53;;;;;;;6.93;1.80;;;31.50;25.90;;;;;;5015210;28;20452;-66
2022/11/14 10:38:27;;;;;;;2.90;2.03;;;32.10;25.00;;;;;;5053788;28;20524;-67
2022/11/14 10:40:59;;;;;;;7.83;2.13;;;32.50;24.80;;;;;;5053642;28;20432;-66
2022/11/14 10:43:32;;;;;;;5.57;4.20;;;32.90;23.90;;;;;;5053570;28;20471;-67
2022/11/14 10:46:05;;;;;;;4.00;3.50;;;33.30;25.00;;;;;;5053595;28;20468;-67
2022/11/14 10:48:37;;;;;;;2.70;2.10;;;33.60;25.40;;;;;;5053512;28;20777;-66
2022/11/14 10:51:12;;;;;;;3.47;2.17;;;34.00;26.50;;;;;;5053341;28;20460;-67
2022/11/14 10:53:48;;;;;;;4.60;1.80;;;34.10;26.80;;;;;;5053297;28;20967;-67
2022/11/14 10:56:15;;;;;;;2.40;1.50;;;34.50;26.50;;;;;;5053340;28;20448;-67
2022/11/14 10:58:43;;;;;;;3.50;1.80;;;34.70;25.80;;;;;;5053366;28;20433;-67
2022/11/14 11:01:35;;;;;;;3.90;2.70;;;35.10;25.00;;;;;;5053310;28;20472;-66
2022/11/14 11:04:20;;;;;;;4.00;2.20;;;35.30;24.30;;;;;;5052763;28;20493;-67
2022/11/14 11:06:47;;;;;;;2.10;1.30;;;35.40;23.60;;;;;;5053549;28;20749;-66
2022/11/14 11:12:06;;;;;;;2.70;1.83;;;35.50;23.70;;;;;;5019113;28;20746;-67
2022/11/14 11:14:33;;;;;;;3.30;2.37;;;35.60;23.40;;;;;;5052504;28;20436;-67
2022/11/14 11:17:25;;;;;;;3.90;2.07;;;35.50;22.90;;;;;;5053065;28;20447;-66
2022/11/14 11:19:54;;;;;;;5.50;2.23;;;35.50;22.50;;;;;;5052910;28;20452;-67
2022/11/14 11:22:27;;;;;;;2.87;2.03;;;35.80;22.50;;;;;;5052909;28;20463;-66
2022/11/14 11:24:54;;;;;;;3.70;1.90;;;36.00;22.30;;;;;;5052734;28;20550;-67
2022/11/14 11:27:24;;;;;;;2.90;2.00;;;36.20;21.40;;;;;;5052917;28;20440;-67
2022/11/14 11:30:22;;;;;;;2.60;1.77;;;36.10;22.10;;;;;;5052970;28;20444;-66
2022/11/14 11:32:50;;;;;;;2.80;2.23;;;36.10;21.60;;;;;;5050725;28;20433;-69
2022/11/14 11:35:18;;;;;;;3.30;2.10;;;36.20;21.30;;;;;;5046282;28;20437;-67
2022/11/14 11:37:53;;;;;;;4.90;2.10;;;36.10;21.20;;;;;;5052179;28;20481;-66
2022/11/14 11:40:22;;;;;;;2.80;1.90;;;35.70;21.50;;;;;;5052369;28;20436;-67
2022/11/14 11:42:58;;;;;;;3.37;1.63;;;35.70;22.00;;;;;;5052360;28;20433;-67
2022/11/14 11:45:26;;;;;;;3.93;1.90;;;35.90;21.50;;;;;;5052263;28;20511;-67
2022/11/14 11:47:58;;;;;;;2.70;1.60;;;36.10;21.40;;;;;;5051254;28;20441;-68
2022/11/14 11:50:26;;;;;;;2.67;2.20;;;36.00;20.70;;;;;;5054102;28;20437;-68
2022/11/14 11:53:04;;;;;;;2.70;2.00;;;35.80;19.90;;;;;;5056722;28;20488;-68
2022/11/14 11:55:38;;;;;;;4.73;2.43;;;35.60;19.80;;;;;;5052626;28;20907;-68
2022/11/14 11:58:11;;;;;;;2.60;1.97;;;35.40;19.80;;;;;;5055231;28;20806;-67
2022/11/14 12:00:39;;;;;;;2.53;1.70;;;35.30;19.90;;;;;;5055974;28;20476;-68
2022/11/14 12:03:12;;;;;;;3.33;2.10;;;35.20;20.50;;;;;;5055037;28;20522;-67
2022/11/14 12:05:50;;;;;;;6.83;2.17;;;35.10;20.50;;;;;;5055477;28;20854;-68
2022/11/14 12:08:24;;;;;;;2.80;1.90;;;35.10;19.90;;;;;;5054976;28;20562;-67
2022/11/14 12:10:53;;;;;;;2.87;1.83;;;34.80;20.20;;;;;;5055373;28;20494;-66
2022/11/14 12:13:42;;;;;;;7.00;2.60;;;34.80;20.10;;;;;;5056122;28;20815;-67
2022/11/14 12:16:27;;;;;;;3.00;2.50;;;34.30;20.50;;;;;;5054195;28;20441;-67
2022/11/14 12:19:12;;;;;;;2.90;2.20;;;34.10;21.30;;;;;;5055484;28;20522;-67
2022/11/14 12:22:06;;;;;;;3.03;2.37;;;33.70;21.50;;;;;;5055264;28;20444;-65
2022/11/14 12:24:57;;;;;;;2.60;1.93;;;33.30;21.70;;;;;;5055566;28;21079;-66
2022/11/14 12:27:48;;;;;;;3.53;2.40;;;33.20;21.70;;;;;;5055841;28;20824;-66
2022/11/14 12:30:20;;;;;;;3.17;2.27;;;32.60;21.90;;;;;;5056124;28;20527;-66
2022/11/14 12:32:51;;;;;;;4.90;2.60;;;31.90;22.20;;;;;;5055958;28;20421;-65
2022/11/14 12:35:22;;;;;;;3.83;2.77;;;31.40;23.10;;;;;;5056081;28;20440;-65
2022/11/14 12:37:53;;;;;;;3.80;2.83;;;30.50;23.40;;;;;;5055999;28;20441;-65
2022/11/14 12:40:28;;;;;;;4.00;2.67;;;29.40;24.30;;;;;;5055643;28;20938;-66
2022/11/14 12:42:57;;;;;;;3.50;2.43;;;28.60;25.70;;;;;;5052657;28;20437;-67
2022/11/14 12:46:06;;;;;;;3.27;2.23;;;28.50;26.20;;;;;;5055472;28;20484;-68
2022/11/14 12:48:39;;;;;;;3.33;2.23;;;29.10;26.00;;;;;;5055382;28;20530;-67
2022/11/14 12:51:44;;;;;;;3.47;2.33;;;28.70;25.30;;;;;;5054950;28;20477;-68
2022/11/14 12:54:48;;;;;;;4.20;2.23;;;27.40;26.20;;;;;;5054897;28;20799;-67
2022/11/14 13:00:07;;;;;;;6.60;2.07;;;25.20;29.10;;;;;;5051693;28;20429;-65
2022/11/14 13:03:00;;;;;;;4.27;2.43;;;24.60;30.70;;;;;;5054051;28;20765;-65
2022/11/14 13:05:48;;;;;;;4.23;2.33;;;24.70;30.80;;;;;;5055328;28;20484;-65
2022/11/14 13:08:46;;;;;;;3.03;2.17;;;24.80;30.20;;;;;;5055371;28;20449;-68
2022/11/14 13:23:52;;;;;;;3.37;2.43;;;22.70;33.50;;;;;;5055179;28;20424;-67
2022/11/14 13:26:40;;;;;;;4.30;3.07;;;22.60;33.40;;;;;;5055091;28;20910;-67
2022/11/14 13:29:08;;;;;;;6.03;3.53;;;22.40;33.00;;;;;;5054945;28;20433;-67
2022/11/14 13:31:50;;;;;;;4.23;2.60;;;22.40;32.80;;;;;;5054582;28;20779;-67